Time;durP1;ratioP1;P1;durP2;ratioP2;P2;SDS_P1;SDS_P2;PMS_P1;PMS_P2;Temp;Humidity;BMP_temperature;BMP_pressure;BME280_temperature;BME280_humidity;BME280_pressure;Samples;Min_cycle;Max_cycle;Signal;HPM_P1;HPM_P2
2022/08/17 00:01:06;;;;;;;;;;;;;;;;;;4970887;23;19937;-91
2022/08/17 00:03:32;;;;;;;;;;;;;;;;;;4928596;29;19915;-91
2022/08/17 00:05:57;;;;;;;;;;;;;;;;;;4926994;29;20257;-91
2022/08/17 00:08:22;;;;;;;;;;;;;;;;;;4923951;29;19970;-91
2022/08/17 00:10:47;;;;;;;;;;;;;;;;;;4926830;29;19922;-91
2022/08/17 00:13:13;;;;;;;;;;;;;;;;;;4926651;29;19919;-90
2022/08/17 00:15:38;;;;;;;;;;;;;;;;;;4927418;29;19926;-91
2022/08/17 00:18:03;;;;;;;;;;;;;;;;;;4928372;29;21329;-91
2022/08/17 00:20:28;;;;;;;;;;;;;;;;;;4921176;29;19915;-90
2022/08/17 00:22:53;;;;;;;;;;;;;;;;;;4929734;29;20369;-92
2022/08/17 00:25:19;;;;;;;;;;;;;;;;;;4927473;29;20270;-91
2022/08/17 00:27:44;;;;;;;;;;;;;;;;;;4924677;29;19922;-92
2022/08/17 00:30:17;;;;;;;;;;;;;;;;;;4924267;29;19938;-91
2022/08/17 00:32:42;;;;;;;;;;;;;;;;;;4921297;29;20292;-91
2022/08/17 00:35:07;;;;;;;;;;;;;;;;;;4926654;29;19915;-91
2022/08/17 00:37:32;;;;;;;;;;;;;;;;;;4923963;29;19950;-91
2022/08/17 00:39:57;;;;;;;;;;;;;;;;;;4927682;29;19994;-91
2022/08/17 00:42:23;;;;;;;;;;;;;;;;;;4927630;29;20298;-91
2022/08/17 00:44:48;;;;;;;;;;;;;;;;;;4926363;29;20366;-91
2022/08/17 00:47:13;;;;;;;;;;;;;;;;;;4924121;29;19919;-91
2022/08/17 00:49:38;;;;;;;;;;;;;;;;;;4924252;29;20336;-91
2022/08/17 00:52:05;;;;;;;;;;;;;;;;;;4926542;29;20027;-91
2022/08/17 00:54:31;;;;;;;;;;;;;;;;;;4925727;29;19922;-91
2022/08/17 00:56:56;;;;;;;;;;;;;;;;;;4927455;29;19915;-91
2022/08/17 00:59:21;;;;;;;;;;;;;;;;;;4925111;29;19918;-91
2022/08/17 01:01:46;;;;;;;;;;;;;;;;;;4929083;29;19997;-91
2022/08/17 01:04:11;;;;;;;;;;;;;;;;;;4925499;29;19918;-90
2022/08/17 01:06:36;;;;;;;;;;;;;;;;;;4925602;29;20285;-90
2022/08/17 01:09:02;;;;;;;;;;;;;;;;;;4924794;29;19922;-91
2022/08/17 01:11:27;;;;;;;;;;;;;;;;;;4921292;29;20006;-90
2022/08/17 01:13:52;;;;;;;;;;;;;;;;;;4924189;29;19915;-90
2022/08/17 01:16:18;;;;;;;;;;;;;;;;;;4927847;29;19915;-90
2022/08/17 01:18:43;;;;;;;;;;;;;;;;;;4920710;29;19925;-91
2022/08/17 01:21:08;;;;;;;;;;;;;;;;;;4920717;29;19926;-91
2022/08/17 01:23:33;;;;;;;;;;;;;;;;;;4923802;29;20329;-91
2022/08/17 01:25:58;;;;;;;;;;;;;;;;;;4923378;29;20010;-90
2022/08/17 01:28:24;;;;;;;;;;;;;;;;;;4924034;29;19927;-89
2022/08/17 01:30:49;;;;;;;;;;;;;;;;;;4924734;29;20002;-91
2022/08/17 01:33:14;;;;;;;;;;;;;;;;;;4921428;29;20337;-91
2022/08/17 01:35:39;;;;;;;;;;;;;;;;;;4922966;29;21252;-92
2022/08/17 01:38:04;;;;;;;;;;;;;;;;;;4921796;29;19977;-91
2022/08/17 01:40:30;;;;;;;;;;;;;;;;;;4923663;29;19919;-90
2022/08/17 01:42:55;;;;;;;;;;;;;;;;;;4920777;29;19914;-90
2022/08/17 01:45:21;;;;;;;;;;;;;;;;;;4921028;29;20087;-90
2022/08/17 01:47:47;;;;;;;;;;;;;;;;;;4918916;29;19965;-90
2022/08/17 01:50:12;;;;;;;;;;;;;;;;;;4921353;29;20359;-91
2022/08/17 01:52:37;;;;;;;;;;;;;;;;;;4922094;29;19938;-91
2022/08/17 01:55:02;;;;;;;;;;;;;;;;;;4926994;29;20355;-91
2022/08/17 01:57:27;;;;;;;;;;;;;;;;;;4924253;29;19933;-91
2022/08/17 01:59:52;;;;;;;;;;;;;;;;;;4927844;29;20348;-90
2022/08/17 02:02:18;;;;;;;;;;;;;;;;;;4923640;29;19919;-91
2022/08/17 02:04:43;;;;;;;;;;;;;;;;;;4924009;29;21106;-91
2022/08/17 02:07:09;;;;;;;;;;;;;;;;;;4923988;29;19925;-90
2022/08/17 02:09:34;;;;;;;;;;;;;;;;;;4926866;29;19926;-91
2022/08/17 02:11:59;;;;;;;;;;;;;;;;;;4922946;29;19923;-91
2022/08/17 02:14:24;;;;;;;;;;;;;;;;;;4923473;29;19919;-91
2022/08/17 02:16:49;;;;;;;;;;;;;;;;;;4928708;29;19969;-90
2022/08/17 02:19:14;;;;;;;;;;;;;;;;;;4929833;29;19923;-90
2022/08/17 02:21:40;;;;;;;;;;;;;;;;;;4927058;29;19914;-90
2022/08/17 02:24:05;;;;;;;;;;;;;;;;;;4928037;29;19919;-90
2022/08/17 02:26:30;;;;;;;;;;;;;;;;;;4924270;29;19974;-91
2022/08/17 02:28:55;;;;;;;;;;;;;;;;;;4927390;29;19962;-91
2022/08/17 02:31:20;;;;;;;;;;;;;;;;;;4927300;29;19969;-90
2022/08/17 02:33:45;;;;;;;;;;;;;;;;;;4926757;29;20497;-91
2022/08/17 02:36:11;;;;;;;;;;;;;;;;;;4926377;29;19914;-90
2022/08/17 02:38:36;;;;;;;;;;;;;;;;;;4925042;29;20347;-90
2022/08/17 02:41:01;;;;;;;;;;;;;;;;;;4918975;29;19922;-90
2022/08/17 02:43:26;;;;;;;;;;;;;;;;;;4925402;29;19914;-90
2022/08/17 02:45:51;;;;;;;;;;;;;;;;;;4929611;29;20440;-91
2022/08/17 02:48:16;;;;;;;;;;;;;;;;;;4929852;29;20092;-90
2022/08/17 02:50:42;;;;;;;;;;;;;;;;;;4926456;29;20429;-90
2022/08/17 02:53:07;;;;;;;;;;;;;;;;;;4926587;29;19915;-90
2022/08/17 02:55:32;;;;;;;;;;;;;;;;;;4928080;29;19922;-90
2022/08/17 02:57:57;;;;;;;;;;;;;;;;;;4928731;29;20049;-91
2022/08/17 03:00:23;;;;;;;;;;;;;;;;;;4928402;29;20010;-90
2022/08/17 03:02:48;;;;;;;;;;;;;;;;;;4921716;29;19923;-91
2022/08/17 03:05:13;;;;;;;;;;;;;;;;;;4928475;29;19961;-91
2022/08/17 03:07:38;;;;;;;;;;;;;;;;;;4923438;29;19915;-90
2022/08/17 03:10:03;;;;;;;;;;;;;;;;;;4930540;29;19918;-91
2022/08/17 03:12:29;;;;;;;;;;;;;;;;;;4925325;29;19922;-90
2022/08/17 03:14:55;;;;;;;;;;;;;;;;;;4927321;29;19926;-90
2022/08/17 03:17:20;;;;;;;;;;;;;;;;;;4930475;29;19930;-90
2022/08/17 03:19:45;;;;;;;;;;;;;;;;;;4929341;29;19927;-90
2022/08/17 03:22:10;;;;;;;;;;;;;;;;;;4930420;29;20373;-91
2022/08/17 03:24:35;;;;;;;;;;;;;;;;;;4929883;29;19922;-90
2022/08/17 03:27:01;;;;;;;;;;;;;;;;;;4930020;29;19922;-90
2022/08/17 03:29:26;;;;;;;;;;;;;;;;;;4942844;28;19922;-91
2022/08/17 03:31:51;;;;;;;;;;;;;;;;;;4937723;29;19927;-90
2022/08/17 03:34:16;;;;;;;;;;;;;;;;;;4926873;29;20432;-91
2022/08/17 03:36:41;;;;;;;;;;;;;;;;;;4926993;29;19915;-90
2022/08/17 03:39:07;;;;;;;;;;;;;;;;;;4933824;29;19925;-90
2022/08/17 03:41:32;;;;;;;;;;;;;;;;;;4932873;28;20389;-90
2022/08/17 03:43:57;;;;;;;;;;;;;;;;;;4929892;29;19915;-90
2022/08/17 03:57:22;;;;;;;;;;;;;;;;;;4916420;29;20389;-90
2022/08/17 03:59:48;;;;;;;;;;;;;;;;;;4927090;29;20028;-90
2022/08/17 04:02:13;;;;;;;;;;;;;;;;;;4927813;29;19923;-90
2022/08/17 04:04:38;;;;;;;;;;;;;;;;;;4930341;29;19925;-90
2022/08/17 04:07:03;;;;;;;;;;;;;;;;;;4926656;29;19914;-90
2022/08/17 04:09:28;;;;;;;;;;;;;;;;;;4925074;29;20347;-90
2022/08/17 04:11:54;;;;;;;;;;;;;;;;;;4928459;29;20347;-90
2022/08/17 04:14:19;;;;;;;;;;;;;;;;;;4929923;29;19922;-90
2022/08/17 04:16:44;;;;;;;;;;;;;;;;;;4926394;29;19919;-90
2022/08/17 04:19:09;;;;;;;;;;;;;;;;;;4928671;29;20436;-91
2022/08/17 04:21:34;;;;;;;;;;;;;;;;;;4926484;29;19919;-90
2022/08/17 04:24:00;;;;;;;;;;;;;;;;;;4929375;29;19931;-90
2022/08/17 04:26:25;;;;;;;;;;;;;;;;;;4926866;29;19926;-90
2022/08/17 04:28:50;;;;;;;;;;;;;;;;;;4928311;29;19919;-90
2022/08/17 04:31:15;;;;;;;;;;;;;;;;;;4929400;29;19923;-91
2022/08/17 04:33:42;;;;;;;;;;;;;;;;;;4924924;29;20384;-90
2022/08/17 04:36:08;;;;;;;;;;;;;;;;;;4926504;28;19922;-90
2022/08/17 04:38:33;;;;;;;;;;;;;;;;;;4928681;29;19919;-91
2022/08/17 04:43:42;;;;;;;;;;;;;;;;;;4924579;29;19978;-90
2022/08/17 04:46:07;;;;;;;;;;;;;;;;;;4927276;29;20389;-90
2022/08/17 04:48:33;;;;;;;;;;;;;;;;;;4932862;29;19914;-90
2022/08/17 04:50:58;;;;;;;;;;;;;;;;;;4927952;29;20031;-92
2022/08/17 04:53:24;;;;;;;;;;;;;;;;;;4924732;29;20194;-90
2022/08/17 04:55:49;;;;;;;;;;;;;;;;;;4924366;29;20021;-90
2022/08/17 04:58:14;;;;;;;;;;;;;;;;;;4925000;29;19930;-90
2022/08/17 05:00:39;;;;;;;;;;;;;;;;;;4928365;29;19922;-91
2022/08/17 05:03:07;;;;;;;;;;;;;;;;;;4927763;29;19918;-90
2022/08/17 05:05:32;;;;;;;;;;;;;;;;;;4931599;29;19915;-91
2022/08/17 05:07:57;;;;;;;;;;;;;;;;;;4929805;29;19937;-90
2022/08/17 05:10:22;;;;;;;;;;;;;;;;;;4931239;29;19918;-91
2022/08/17 05:12:47;;;;;;;;;;;;;;;;;;4926382;29;19922;-91
2022/08/17 05:15:15;;;;;;;;;;;;;;;;;;4933430;29;19919;-90
2022/08/17 05:17:41;;;;;;;;;;;;;;;;;;4926937;29;20451;-91
2022/08/17 05:20:06;;;;;;;;;;;;;;;;;;4926271;29;19915;-91
2022/08/17 05:22:31;;;;;;;;;;;;;;;;;;4921817;29;19962;-90
2022/08/17 05:24:56;;;;;;;;;;;;;;;;;;4922837;29;19930;-91
2022/08/17 05:27:21;;;;;;;;;;;;;;;;;;4931956;29;19997;-91
2022/08/17 05:29:46;;;;;;;;;;;;;;;;;;4925483;29;19918;-91
2022/08/17 05:32:12;;;;;;;;;;;;;;;;;;4936889;28;19938;-90
2022/08/17 05:34:37;;;;;;;;;;;;;;;;;;4927446;29;21308;-91
2022/08/17 05:37:02;;;;;;;;;;;;;;;;;;4931063;29;19970;-90
2022/08/17 05:39:27;;;;;;;;;;;;;;;;;;4932666;28;20369;-91
2022/08/17 05:41:52;;;;;;;;;;;;;;;;;;4930291;28;19966;-90
2022/08/17 05:44:17;;;;;;;;;;;;;;;;;;4930076;29;19950;-91
2022/08/17 05:46:43;;;;;;;;;;;;;;;;;;4928245;29;20298;-90
2022/08/17 05:49:08;;;;;;;;;;;;;;;;;;4927816;29;19957;-90
2022/08/17 05:51:33;;;;;;;;;;;;;;;;;;4933190;29;20272;-91
2022/08/17 05:53:58;;;;;;;;;;;;;;;;;;4932303;29;20509;-91
2022/08/17 05:56:24;;;;;;;;;;;;;;;;;;4930924;29;19915;-89
2022/08/17 05:58:49;;;;;;;;;;;;;;;;;;4928764;29;20344;-90
2022/08/17 06:01:14;;;;;;;;;;;;;;;;;;4929999;29;19930;-88
2022/08/17 06:03:39;;;;;;;;;;;;;;;;;;4929053;29;19929;-88
2022/08/17 06:06:05;;;;;;;;;;;;;;;;;;4931798;29;20333;-88
2022/08/17 06:08:30;;;;;;;;;;;;;;;;;;4929745;29;19938;-88
2022/08/17 06:10:55;;;;;;;;;;;;;;;;;;4931074;29;20387;-88
2022/08/17 06:13:20;;;;;;;;;;;;;;;;;;4933723;29;19921;-88
2022/08/17 06:15:46;;;;;;;;;;;;;;;;;;4933124;29;20285;-89
2022/08/17 06:18:11;;;;;;;;;;;;;;;;;;4932896;29;19919;-89
2022/08/17 06:20:36;;;;;;;;;;;;;;;;;;4932450;29;19915;-89
2022/08/17 06:23:01;;;;;;;;;;;;;;;;;;4935171;29;19918;-89
2022/08/17 06:25:26;;;;;;;;;;;;;;;;;;4933992;29;19962;-89
2022/08/17 06:27:51;;;;;;;;;;;;;;;;;;4932789;29;20375;-88
2022/08/17 06:30:17;;;;;;;;;;;;;;;;;;4933905;29;19915;-90
2022/08/17 06:32:42;;;;;;;;;;;;;;;;;;4934354;29;19933;-90
2022/08/17 06:35:07;;;;;;;;;;;;;;;;;;4935361;29;19921;-90
2022/08/17 06:37:32;;;;;;;;;;;;;;;;;;4932042;29;19915;-89
2022/08/17 06:39:57;;;;;;;;;;;;;;;;;;4932993;29;20118;-89
2022/08/17 06:42:24;;;;;;;;;;;;;;;;;;4934497;29;20455;-89
2022/08/17 06:44:49;;;;;;;;;;;;;;;;;;4930885;29;20333;-89
2022/08/17 06:47:15;;;;;;;;;;;;;;;;;;4933782;29;19919;-89
2022/08/17 06:49:40;;;;;;;;;;;;;;;;;;4932747;29;19914;-89
2022/08/17 06:52:05;;;;;;;;;;;;;;;;;;4930479;29;19919;-89
2022/08/17 06:54:31;;;;;;;;;;;;;;;;;;4932473;29;19915;-89
2022/08/17 06:56:57;;;;;;;;;;;;;;;;;;4928886;29;20393;-89
2022/08/17 06:59:22;;;;;;;;;;;;;;;;;;4926991;29;19919;-88
2022/08/17 07:01:50;;;;;;;;;;;;;;;;;;4930517;29;19974;-88
2022/08/17 07:04:16;;;;;;;;;;;;;;;;;;4927088;29;20025;-89
2022/08/17 07:06:41;;;;;;;;;;;;;;;;;;4926940;29;20059;-88
2022/08/17 07:09:06;;;;;;;;;;;;;;;;;;4924316;29;20369;-88
2022/08/17 07:11:31;;;;;;;;;;;;;;;;;;4925204;29;20066;-89
2022/08/17 07:13:57;;;;;;;;;;;;;;;;;;4924312;29;20301;-89
2022/08/17 07:16:22;;;;;;;;;;;;;;;;;;4927604;29;20005;-88
2022/08/17 07:18:47;;;;;;;;;;;;;;;;;;4929912;29;19919;-88
2022/08/17 07:21:12;;;;;;;;;;;;;;;;;;4932014;29;19914;-90
2022/08/17 07:23:38;;;;;;;;;;;;;;;;;;4926972;29;19915;-88
2022/08/17 07:26:04;;;;;;;;;;;;;;;;;;4926919;29;19998;-89
2022/08/17 07:28:29;;;;;;;;;;;;;;;;;;4928728;29;20002;-88
2022/08/17 07:30:54;;;;;;;;;;;;;;;;;;4926292;29;19938;-89
2022/08/17 07:33:19;;;;;;;;;;;;;;;;;;4928618;29;19962;-89
2022/08/17 07:35:47;;;;;;;;;;;;;;;;;;4920498;29;19922;-89
2022/08/17 07:38:13;;;;;;;;;;;;;;;;;;4927090;29;19935;-89
2022/08/17 07:40:38;;;;;;;;;;;;;;;;;;4925925;29;19927;-89
2022/08/17 07:43:03;;;;;;;;;;;;;;;;;;4938040;29;19926;-90
2022/08/17 07:48:18;;;;;;;;;;;;;;;;;;4927163;29;19921;-89
2022/08/17 07:50:43;;;;;;;;;;;;;;;;;;4926614;29;19930;-88
2022/08/17 07:53:09;;;;;;;;;;;;;;;;;;4933035;28;19915;-88
2022/08/17 07:55:39;;;;;;;;;;;;;;;;;;4925297;29;19915;-89
2022/08/17 07:58:04;;;;;;;;;;;;;;;;;;4932144;29;20002;-89
2022/08/17 08:00:31;;;;;;;;;;;;;;;;;;4930143;29;20006;-89
2022/08/17 08:02:56;;;;;;;;;;;;;;;;;;4928633;29;19918;-90
2022/08/17 08:05:21;;;;;;;;;;;;;;;;;;4925739;29;19915;-89
2022/08/17 08:07:46;;;;;;;;;;;;;;;;;;4941863;29;19919;-89
2022/08/17 08:10:11;;;;;;;;;;;;;;;;;;4931357;29;19947;-88
2022/08/17 08:12:36;;;;;;;;;;;;;;;;;;4924301;29;19922;-88
2022/08/17 08:15:02;;;;;;;;;;;;;;;;;;4939004;29;19925;-89
2022/08/17 08:17:29;;;;;;;;;;;;;;;;;;4929508;28;19919;-89
2022/08/17 08:19:54;;;;;;;;;;;;;;;;;;4934366;29;19919;-89
2022/08/17 08:22:19;;;;;;;;;;;;;;;;;;4932775;28;19922;-88
2022/08/17 08:24:44;;;;;;;;;;;;;;;;;;4934080;29;20332;-89
2022/08/17 08:27:09;;;;;;;;;;;;;;;;;;4922965;29;19915;-88
2022/08/17 08:29:36;;;;;;;;;;;;;;;;;;4930536;29;19919;-89
2022/08/17 08:32:02;;;;;;;;;;;;;;;;;;4930994;29;20435;-89
2022/08/17 08:34:28;;;;;;;;;;;;;;;;;;4933011;29;19954;-90
2022/08/17 08:36:53;;;;;;;;;;;;;;;;;;4932378;29;19921;-89
2022/08/17 08:39:18;;;;;;;;;;;;;;;;;;4932150;29;19918;-90
2022/08/17 08:41:44;;;;;;;;;;;;;;;;;;4927944;29;19974;-89
2022/08/17 08:44:09;;;;;;;;;;;;;;;;;;4930228;29;20354;-90
2022/08/17 08:46:34;;;;;;;;;;;;;;;;;;4932830;29;19934;-89
2022/08/17 08:49:00;;;;;;;;;;;;;;;;;;4931862;29;19918;-89
2022/08/17 08:51:26;;;;;;;;;;;;;;;;;;4932469;29;20010;-90
2022/08/17 08:53:51;;;;;;;;;;;;;;;;;;4932993;29;19914;-90
2022/08/17 08:56:16;;;;;;;;;;;;;;;;;;4929470;29;19911;-90
2022/08/17 08:58:42;;;;;;;;;;;;;;;;;;4931827;29;20147;-89
2022/08/17 09:01:07;;;;;;;;;;;;;;;;;;4930108;29;20002;-89
2022/08/17 09:03:32;;;;;;;;;;;;;;;;;;4931803;29;19963;-89
2022/08/17 09:05:58;;;;;;;;;;;;;;;;;;4927171;29;19923;-90
2022/08/17 09:08:24;;;;;;;;;;;;;;;;;;4925688;29;19970;-88
2022/08/17 09:10:49;;;;;;;;;;;;;;;;;;4920862;29;19914;-88
2022/08/17 09:13:14;;;;;;;;;;;;;;;;;;4926196;29;19946;-89
2022/08/17 09:15:39;;;;;;;;;;;;;;;;;;4919507;29;20018;-89
2022/08/17 09:18:04;;;;;;;;;;;;;;;;;;4927873;29;20237;-90
2022/08/17 09:20:30;;;;;;;;;;;;;;;;;;4923608;29;20002;-90
2022/08/17 09:22:55;;;;;;;;;;;;;;;;;;4929170;29;19927;-90
2022/08/17 09:25:20;;;;;;;;;;;;;;;;;;4920301;29;20281;-90
2022/08/17 09:27:46;;;;;;;;;;;;;;;;;;4926300;29;19985;-89
2022/08/17 09:30:11;;;;;;;;;;;;;;;;;;4933111;29;19926;-89
2022/08/17 09:32:39;;;;;;;;;;;;;;;;;;4930183;29;19926;-90
2022/08/17 09:35:04;;;;;;;;;;;;;;;;;;4930291;29;20013;-90
2022/08/17 09:37:30;;;;;;;;;;;;;;;;;;4925853;29;20026;-89
2022/08/17 09:39:55;;;;;;;;;;;;;;;;;;4940482;29;20476;-88
2022/08/17 09:42:21;;;;;;;;;;;;;;;;;;4924472;29;19915;-89
2022/08/17 09:44:46;;;;;;;;;;;;;;;;;;4924251;29;19944;-90
2022/08/17 09:47:11;;;;;;;;;;;;;;;;;;4927026;29;19919;-88
2022/08/17 09:49:37;;;;;;;;;;;;;;;;;;4924538;29;19930;-89
2022/08/17 09:52:02;;;;;;;;;;;;;;;;;;4924056;29;20444;-88
2022/08/17 09:54:27;;;;;;;;;;;;;;;;;;4926099;29;19942;-90
2022/08/17 09:56:52;;;;;;;;;;;;;;;;;;4929611;29;19923;-90
2022/08/17 09:59:18;;;;;;;;;;;;;;;;;;4924399;29;19918;-89
2022/08/17 10:01:44;;;;;;;;;;;;;;;;;;4923764;29;19978;-86
2022/08/17 10:04:09;;;;;;;;;;;;;;;;;;4930663;29;20190;-87
2022/08/17 10:06:34;;;;;;;;;;;;;;;;;;4929047;29;19915;-89
2022/08/17 10:09:06;;;;;;;;;;;;;;;;;;4931532;29;20181;-87
2022/08/17 10:12:14;;;;;;;;;;;;;;;;;;4931016;29;19915;-87
2022/08/17 10:14:16;;;;;;;;;;;;;;;;;;4924818;29;19930;-87
2022/08/17 10:16:41;;;;;;;;;;;;;;;;;;4935330;29;19916;-88
2022/08/17 10:19:06;;;;;;;;;;;;;;;;;;4930810;29;20503;-87
2022/08/17 10:26:59;;;;;;;;;;;;;;;;;;4929728;29;19921;-87
2022/08/17 10:29:25;;;;;;;;;;;;;;;;;;4929156;29;19920;-86
2022/08/17 10:31:50;;;;;;;;;;;;;;;;;;4928275;29;19950;-88
2022/08/17 10:34:17;;;;;;;;;;;;;;;;;;4946553;29;19926;-88
2022/08/17 10:36:45;;;;;;;;;;;;;;;;;;4933595;29;19961;-87
2022/08/17 10:39:10;;;;;;;;;;;;;;;;;;4932238;29;19949;-87
2022/08/17 10:41:35;;;;;;;;;;;;;;;;;;4932800;29;20409;-87
2022/08/17 10:44:01;;;;;;;;;;;;;;;;;;4934741;29;19925;-87
2022/08/17 10:46:26;;;;;;;;;;;;;;;;;;4934583;29;19922;-87
2022/08/17 10:48:51;;;;;;;;;;;;;;;;;;4935940;29;20285;-88
2022/08/17 10:51:16;;;;;;;;;;;;;;;;;;4934409;29;19922;-87
2022/08/17 10:53:42;;;;;;;;;;;;;;;;;;4935407;29;20117;-88
2022/08/17 10:56:07;;;;;;;;;;;;;;;;;;4934806;29;20381;-88
2022/08/17 10:58:32;;;;;;;;;;;;;;;;;;4934603;29;20018;-88
2022/08/17 11:00:57;;;;;;;;;;;;;;;;;;4941363;28;20456;-87
2022/08/17 11:03:23;;;;;;;;;;;;;;;;;;4938062;29;20629;-87
2022/08/17 11:05:51;;;;;;;;;;;;;;;;;;4923925;29;20617;-89
2022/08/17 11:08:16;;;;;;;;;;;;;;;;;;4924145;29;19930;-87
2022/08/17 11:10:41;;;;;;;;;;;;;;;;;;4939043;29;19915;-87
2022/08/17 11:13:06;;;;;;;;;;;;;;;;;;4936192;29;20341;-88
2022/08/17 11:15:31;;;;;;;;;;;;;;;;;;4935265;29;19911;-90
2022/08/17 11:18:00;;;;;;;;;;;;;;;;;;4934833;29;20368;-87
2022/08/17 11:20:25;;;;;;;;;;;;;;;;;;4946867;28;19918;-88
2022/08/17 11:22:54;;;;;;;;;;;;;;;;;;4933872;29;20326;-87
2022/08/17 11:25:19;;;;;;;;;;;;;;;;;;4937053;29;19978;-87
2022/08/17 11:27:45;;;;;;;;;;;;;;;;;;4942670;29;19923;-88
2022/08/17 11:30:11;;;;;;;;;;;;;;;;;;4940143;29;20401;-87
2022/08/17 11:32:36;;;;;;;;;;;;;;;;;;4934657;29;20005;-87
2022/08/17 11:35:01;;;;;;;;;;;;;;;;;;4934555;29;19919;-88
2022/08/17 11:37:26;;;;;;;;;;;;;;;;;;4934047;29;20075;-87
2022/08/17 11:39:51;;;;;;;;;;;;;;;;;;4933457;29;19915;-87
2022/08/17 11:42:17;;;;;;;;;;;;;;;;;;4934192;29;19950;-87
2022/08/17 11:44:42;;;;;;;;;;;;;;;;;;4934322;29;20337;-87
2022/08/17 11:52:39;;;;;;;;;;;;;;;;;;4915037;29;20009;-87
2022/08/17 11:55:05;;;;;;;;;;;;;;;;;;4934346;29;20002;-87
2022/08/17 11:57:30;;;;;;;;;;;;;;;;;;4934513;29;19946;-86
2022/08/17 11:59:58;;;;;;;;;;;;;;;;;;4934423;29;20357;-87
2022/08/17 12:02:29;;;;;;;;;;;;;;;;;;4976555;23;19930;-85
2022/08/17 12:04:56;;;;;;;;;;;;;;;;;;4970909;28;19925;-85
2022/08/17 12:07:22;;;;;;;;;;;;;;;;;;4988014;28;19965;-85
2022/08/17 12:09:50;;;;;;;;;;;;;;;;;;4988883;28;20364;-85
2022/08/17 12:12:18;;;;;;;;;;;;;;;;;;4968813;28;20430;-85
2022/08/17 12:14:44;;;;;;;;;;;;;;;;;;4973397;28;19910;-85
2022/08/17 12:17:09;;;;;;;;;;;;;;;;;;4980542;28;19914;-85
2022/08/17 12:19:34;;;;;;;;;;;;;;;;;;4970128;28;19922;-84
2022/08/17 12:21:59;;;;;;;;;;;;;;;;;;4971080;28;20482;-85
2022/08/17 12:24:24;;;;;;;;;;;;;;;;;;4974113;28;19914;-85
2022/08/17 12:26:49;;;;;;;;;;;;;;;;;;4972232;28;19953;-85
2022/08/17 12:29:15;;;;;;;;;;;;;;;;;;4967554;28;20001;-85
2022/08/17 12:31:42;;;;;;;;;;;;;;;;;;4976056;28;19918;-85
2022/08/17 12:34:07;;;;;;;;;;;;;;;;;;4991650;28;19914;-85
2022/08/17 12:36:32;;;;;;;;;;;;;;;;;;4976021;28;19914;-85
2022/08/17 12:39:00;;;;;;;;;;;;;;;;;;4965329;28;20076;-85
2022/08/17 12:41:27;;;;;;;;;;;;;;;;;;4964222;28;19953;-85
2022/08/17 12:43:52;;;;;;;;;;;;;;;;;;4971256;28;19914;-85
2022/08/17 12:46:17;;;;;;;;;;;;;;;;;;4961117;28;19925;-85
2022/08/17 12:48:42;;;;;;;;;;;;;;;;;;4958045;28;20376;-85
2022/08/17 12:51:08;;;;;;;;;;;;;;;;;;4949828;28;19918;-85
2022/08/17 12:53:35;;;;;;;;;;;;;;;;;;4951930;28;19925;-86
2022/08/17 12:56:01;;;;;;;;;;;;;;;;;;4954445;28;19922;-85
2022/08/17 12:58:26;;;;;;;;;;;;;;;;;;4950438;28;19976;-85
2022/08/17 13:00:51;;;;;;;;;;;;;;;;;;4957286;28;20343;-86
2022/08/17 13:03:18;;;;;;;;;;;;;;;;;;4955724;28;19918;-86
2022/08/17 13:05:43;;;;;;;;;;;;;;;;;;4949332;28;19929;-86
2022/08/17 13:08:09;;;;;;;;;;;;;;;;;;4952149;28;19918;-86
2022/08/17 13:10:34;;;;;;;;;;;;;;;;;;4958993;28;19918;-86
2022/08/17 13:13:03;;;;;;;;;;;;;;;;;;4957748;28;19921;-85
2022/08/17 13:15:28;;;;;;;;;;;;;;;;;;4955364;28;19937;-86
2022/08/17 13:17:55;;;;;;;;;;;;;;;;;;4957837;28;19918;-86
2022/08/17 13:20:20;;;;;;;;;;;;;;;;;;4963847;28;19918;-86
2022/08/17 13:22:45;;;;;;;;;;;;;;;;;;4966155;28;19989;-86
2022/08/17 13:25:11;;;;;;;;;;;;;;;;;;4960799;28;19929;-86
2022/08/17 13:27:37;;;;;;;;;;;;;;;;;;4965553;28;19933;-86
2022/08/17 13:30:02;;;;;;;;;;;;;;;;;;4964317;28;19918;-87
2022/08/17 13:32:27;;;;;;;;;;;;;;;;;;4953371;28;19918;-86
2022/08/17 13:34:52;;;;;;;;;;;;;;;;;;4972323;28;20308;-86
2022/08/17 13:37:17;;;;;;;;;;;;;;;;;;4967128;28;19913;-86
2022/08/17 13:39:43;;;;;;;;;;;;;;;;;;4951871;28;20331;-85
2022/08/17 13:42:08;;;;;;;;;;;;;;;;;;4970981;28;19961;-85
2022/08/17 13:44:33;;;;;;;;;;;;;;;;;;4971222;28;19964;-85
2022/08/17 13:46:58;;;;;;;;;;;;;;;;;;4971410;28;19910;-86
2022/08/17 13:49:23;;;;;;;;;;;;;;;;;;4968545;28;19922;-86
2022/08/17 13:51:49;;;;;;;;;;;;;;;;;;4973446;28;20443;-85
2022/08/17 13:54:14;;;;;;;;;;;;;;;;;;4975468;28;19919;-85
2022/08/17 13:56:39;;;;;;;;;;;;;;;;;;4970487;28;19964;-86
2022/08/17 13:59:04;;;;;;;;;;;;;;;;;;4959020;28;19919;-85
2022/08/17 14:01:29;;;;;;;;;;;;;;;;;;4961175;29;19918;-86
2022/08/17 14:03:54;;;;;;;;;;;;;;;;;;4966480;28;19910;-86
2022/08/17 14:06:20;;;;;;;;;;;;;;;;;;4975930;28;19914;-86
2022/08/17 14:08:45;;;;;;;;;;;;;;;;;;4960553;28;19981;-86
2022/08/17 14:11:10;;;;;;;;;;;;;;;;;;4974839;28;19910;-86
2022/08/17 14:13:36;;;;;;;;;;;;;;;;;;4957389;28;19921;-85
2022/08/17 14:16:01;;;;;;;;;;;;;;;;;;4972516;28;20564;-87
2022/08/17 14:18:26;;;;;;;;;;;;;;;;;;4956874;28;19914;-86
2022/08/17 14:20:52;;;;;;;;;;;;;;;;;;4955875;29;20535;-86
2022/08/17 14:23:17;;;;;;;;;;;;;;;;;;4956026;28;19957;-86
2022/08/17 14:25:44;;;;;;;;;;;;;;;;;;4956072;28;20002;-86
2022/08/17 14:28:09;;;;;;;;;;;;;;;;;;4967538;28;19914;-86
2022/08/17 14:30:37;;;;;;;;;;;;;;;;;;4965189;28;19977;-87
2022/08/17 14:33:04;;;;;;;;;;;;;;;;;;4957914;28;20001;-86
2022/08/17 14:35:33;;;;;;;;;;;;;;;;;;4961881;28;19914;-87
2022/08/17 14:38:00;;;;;;;;;;;;;;;;;;4955499;28;19914;-86
2022/08/17 14:40:26;;;;;;;;;;;;;;;;;;4956781;28;19915;-86
2022/08/17 14:42:52;;;;;;;;;;;;;;;;;;4956610;28;19922;-86
2022/08/17 14:45:26;;;;;;;;;;;;;;;;;;4962650;28;19914;-86
2022/08/17 14:47:54;;;;;;;;;;;;;;;;;;4973221;28;19914;-86
2022/08/17 14:50:20;;;;;;;;;;;;;;;;;;4966153;28;19969;-86
2022/08/17 14:52:45;;;;;;;;;;;;;;;;;;4962416;28;19918;-87
2022/08/17 15:31:31;;;;;;;;;;;;;;;;;;4905550;23;19937;-87
2022/08/17 15:33:57;;;;;;;;;;;;;;;;;;4970958;28;19918;-86
2022/08/17 15:36:22;;;;;;;;;;;;;;;;;;4960809;28;19921;-88
2022/08/17 15:38:49;;;;;;;;;;;;;;;;;;4962140;28;19922;-86
2022/08/17 15:41:23;;;;;;;;;;;;;;;;;;4958431;28;19921;-87
2022/08/17 15:43:51;;;;;;;;;;;;;;;;;;4960457;28;19918;-87
2022/08/17 15:46:17;;;;;;;;;;;;;;;;;;4953517;28;19918;-87
2022/08/17 15:48:43;;;;;;;;;;;;;;;;;;4965848;28;19922;-86
2022/08/17 15:51:08;;;;;;;;;;;;;;;;;;4967558;28;19918;-86
2022/08/17 15:53:36;;;;;;;;;;;;;;;;;;4963245;28;20514;-87
2022/08/17 15:56:02;;;;;;;;;;;;;;;;;;4960608;28;19922;-87
2022/08/17 15:58:29;;;;;;;;;;;;;;;;;;4959196;28;19965;-86
2022/08/17 16:00:54;;;;;;;;;;;;;;;;;;4957875;28;19921;-87
2022/08/17 16:03:19;;;;;;;;;;;;;;;;;;4961532;28;19982;-86
2022/08/17 16:05:45;;;;;;;;;;;;;;;;;;4958198;28;19918;-87
2022/08/17 16:08:10;;;;;;;;;;;;;;;;;;4967956;28;19914;-87
2022/08/17 16:10:39;;;;;;;;;;;;;;;;;;4963175;28;19976;-86
2022/08/17 16:13:06;;;;;;;;;;;;;;;;;;4965756;28;19941;-86
2022/08/17 16:15:31;;;;;;;;;;;;;;;;;;4956406;28;19914;-87
2022/08/17 16:17:57;;;;;;;;;;;;;;;;;;4964749;28;20375;-87
2022/08/17 16:20:36;;;;;;;;;;;;;;;;;;4980605;27;20378;-88
2022/08/17 16:23:02;;;;;;;;;;;;;;;;;;4966566;28;19961;-87
2022/08/17 16:25:28;;;;;;;;;;;;;;;;;;4962006;28;20422;-88
2022/08/17 16:27:53;;;;;;;;;;;;;;;;;;4976819;28;19914;-87
2022/08/17 16:30:19;;;;;;;;;;;;;;;;;;4961831;28;20048;-89
2022/08/17 16:32:44;;;;;;;;;;;;;;;;;;4955706;28;19950;-87
2022/08/17 16:35:09;;;;;;;;;;;;;;;;;;4958470;28;20015;-88
2022/08/17 16:37:36;;;;;;;;;;;;;;;;;;4966898;28;19950;-89
2022/08/17 16:40:01;;;;;;;;;;;;;;;;;;4961565;28;21565;-88
2022/08/17 16:42:26;;;;;;;;;;;;;;;;;;4956210;28;19945;-88
2022/08/17 16:44:51;;;;;;;;;;;;;;;;;;4959375;28;19919;-88
2022/08/17 16:47:18;;;;;;;;;;;;;;;;;;4973508;28;20394;-88
2022/08/17 16:49:43;;;;;;;;;;;;;;;;;;4958998;28;19916;-89
2022/08/17 18:27:47;;;;;;;;;;;;;;;;;;5040573;26;20024;-87
2022/08/17 18:35:50;;;;;;;;;;;;;;;;;;5006892;28;19913;-86
2022/08/17 18:38:21;;;;;;;;;;;;;;;;;;5013698;28;19928;-87
2022/08/17 18:40:53;;;;;;;;;;;;;;;;;;5034994;28;19917;-86
2022/08/17 18:43:21;;;;;;;;;;;;;;;;;;5028369;28;19944;-87
2022/08/17 18:45:55;;;;;;;;;;;;;;;;;;5029557;28;20359;-87
2022/08/17 18:48:21;;;;;;;;;;;;;;;;;;5040330;28;19983;-88
2022/08/17 18:50:49;;;;;;;;;;;;;;;;;;5033389;28;19913;-87
2022/08/17 18:53:23;;;;;;;;;;;;;;;;;;5028902;28;19913;-88
2022/08/17 18:55:48;;;;;;;;;;;;;;;;;;5026424;28;19921;-87
2022/08/17 18:58:15;;;;;;;;;;;;;;;;;;5033598;28;19976;-87
2022/08/17 19:03:39;;;;;;;;;;;;;;;;;;5039956;28;19965;-87
2022/08/17 19:06:04;;;;;;;;;;;;;;;;;;5032856;28;20035;-86
2022/08/17 19:08:29;;;;;;;;;;;;;;;;;;5041256;28;19995;-86
2022/08/17 19:11:05;;;;;;;;;;;;;;;;;;;;;
2022/08/17 19:13:33;;;;;;;;;;;;;;;;;;5025921;28;19916;-87
2022/08/17 19:16:00;;;;;;;;;;;;;;;;;;5032236;28;19913;-86
2022/08/17 19:18:28;;;;;;;;;;;;;;;;;;5039353;28;19912;-86
2022/08/17 19:20:53;;;;;;;;;;;;;;;;;;5037168;28;19988;-86
2022/08/17 19:23:27;;;;;;;;;;;;;;;;;;5037744;28;19995;-86